sensor_id;sensor_type;location;lat;lon;timestamp;P1;durP1;ratioP1;P2;durP2;ratioP2
52786;SDS011;38661;53.152;5.846;2023-09-19T00:00:40;11.25;;;2.85;;
52786;SDS011;38661;53.152;5.846;2023-09-19T00:03:06;10.98;;;2.80;;
52786;SDS011;38661;53.152;5.846;2023-09-19T00:05:36;10.38;;;2.20;;
52786;SDS011;38661;53.152;5.846;2023-09-19T00:08:03;8.38;;;2.42;;
52786;SDS011;38661;53.152;5.846;2023-09-19T00:10:30;16.05;;;2.58;;
52786;SDS011;38661;53.152;5.846;2023-09-19T00:12:56;10.20;;;3.05;;
52786;SDS011;38661;53.152;5.846;2023-09-19T00:15:25;8.88;;;2.95;;
52786;SDS011;38661;53.152;5.846;2023-09-19T00:17:56;8.50;;;2.83;;
52786;SDS011;38661;53.152;5.846;2023-09-19T00:20:22;10.82;;;2.80;;
52786;SDS011;38661;53.152;5.846;2023-09-19T00:22:49;13.98;;;2.47;;
52786;SDS011;38661;53.152;5.846;2023-09-19T00:25:17;7.90;;;2.70;;
52786;SDS011;38661;53.152;5.846;2023-09-19T00:27:43;9.05;;;2.00;;
52786;SDS011;38661;53.152;5.846;2023-09-19T00:30:10;13.07;;;2.30;;
52786;SDS011;38661;53.152;5.846;2023-09-19T00:32:50;10.60;;;2.78;;
52786;SDS011;38661;53.152;5.846;2023-09-19T00:35:20;11.20;;;3.00;;
52786;SDS011;38661;53.152;5.846;2023-09-19T00:37:48;10.65;;;2.00;;
52786;SDS011;38661;53.152;5.846;2023-09-19T00:40:14;13.10;;;2.38;;
52786;SDS011;38661;53.152;5.846;2023-09-19T00:42:44;5.90;;;2.10;;
52786;SDS011;38661;53.152;5.846;2023-09-19T00:45:11;10.68;;;2.30;;
52786;SDS011;38661;53.152;5.846;2023-09-19T00:47:46;7.38;;;2.50;;
52786;SDS011;38661;53.152;5.846;2023-09-19T00:50:14;12.18;;;2.95;;
52786;SDS011;38661;53.152;5.846;2023-09-19T00:52:42;5.80;;;2.13;;
52786;SDS011;38661;53.152;5.846;2023-09-19T00:55:09;9.43;;;2.92;;
52786;SDS011;38661;53.152;5.846;2023-09-19T00:57:36;10.25;;;2.13;;
52786;SDS011;38661;53.152;5.846;2023-09-19T01:00:03;6.75;;;1.98;;
52786;SDS011;38661;53.152;5.846;2023-09-19T01:02:32;11.85;;;1.92;;
52786;SDS011;38661;53.152;5.846;2023-09-19T01:04:59;6.47;;;1.73;;
52786;SDS011;38661;53.152;5.846;2023-09-19T01:07:25;9.63;;;2.25;;
52786;SDS011;38661;53.152;5.846;2023-09-19T01:10:02;7.00;;;1.95;;
52786;SDS011;38661;53.152;5.846;2023-09-19T01:29:39;10.48;;;2.50;;
52786;SDS011;38661;53.152;5.846;2023-09-19T01:32:10;6.68;;;1.90;;
52786;SDS011;38661;53.152;5.846;2023-09-19T01:34:45;6.28;;;2.28;;
52786;SDS011;38661;53.152;5.846;2023-09-19T01:37:16;11.52;;;2.45;;
52786;SDS011;38661;53.152;5.846;2023-09-19T01:39:48;10.68;;;2.38;;
52786;SDS011;38661;53.152;5.846;2023-09-19T01:47:51;8.55;;;2.10;;
52786;SDS011;38661;53.152;5.846;2023-09-19T01:53:41;10.50;;;2.78;;
52786;SDS011;38661;53.152;5.846;2023-09-19T01:56:32;6.88;;;1.58;;
52786;SDS011;38661;53.152;5.846;2023-09-19T01:59:15;7.65;;;2.10;;
52786;SDS011;38661;53.152;5.846;2023-09-19T02:01:46;10.57;;;2.20;;
52786;SDS011;38661;53.152;5.846;2023-09-19T02:04:14;10.57;;;2.55;;
52786;SDS011;38661;53.152;5.846;2023-09-19T02:06:40;12.68;;;2.28;;
52786;SDS011;38661;53.152;5.846;2023-09-19T02:09:07;12.40;;;2.20;;
52786;SDS011;38661;53.152;5.846;2023-09-19T02:11:34;5.15;;;1.92;;
52786;SDS011;38661;53.152;5.846;2023-09-19T02:14:00;8.35;;;2.50;;
52786;SDS011;38661;53.152;5.846;2023-09-19T02:16:27;8.75;;;2.53;;
52786;SDS011;38661;53.152;5.846;2023-09-19T02:18:54;6.22;;;1.92;;
52786;SDS011;38661;53.152;5.846;2023-09-19T02:21:19;7.13;;;2.25;;
52786;SDS011;38661;53.152;5.846;2023-09-19T02:23:47;7.70;;;2.88;;
52786;SDS011;38661;53.152;5.846;2023-09-19T02:26:13;8.35;;;1.88;;
52786;SDS011;38661;53.152;5.846;2023-09-19T02:28:39;8.02;;;1.73;;
52786;SDS011;38661;53.152;5.846;2023-09-19T02:31:05;8.85;;;2.17;;
52786;SDS011;38661;53.152;5.846;2023-09-19T02:33:31;10.77;;;2.10;;
52786;SDS011;38661;53.152;5.846;2023-09-19T02:35:57;10.38;;;2.10;;
52786;SDS011;38661;53.152;5.846;2023-09-19T02:38:24;11.27;;;2.25;;
52786;SDS011;38661;53.152;5.846;2023-09-19T02:40:51;6.88;;;2.10;;
52786;SDS011;38661;53.152;5.846;2023-09-19T02:43:20;8.52;;;2.20;;
52786;SDS011;38661;53.152;5.846;2023-09-19T02:45:47;11.30;;;2.63;;
52786;SDS011;38661;53.152;5.846;2023-09-19T02:48:15;8.10;;;1.80;;
52786;SDS011;38661;53.152;5.846;2023-09-19T02:50:41;7.30;;;2.33;;
52786;SDS011;38661;53.152;5.846;2023-09-19T02:53:09;9.20;;;2.00;;
52786;SDS011;38661;53.152;5.846;2023-09-19T02:55:38;8.05;;;2.65;;
52786;SDS011;38661;53.152;5.846;2023-09-19T02:58:05;8.25;;;2.03;;
52786;SDS011;38661;53.152;5.846;2023-09-19T03:00:33;7.20;;;1.92;;
52786;SDS011;38661;53.152;5.846;2023-09-19T03:03:00;8.80;;;2.58;;
52786;SDS011;38661;53.152;5.846;2023-09-19T03:05:27;8.88;;;2.08;;
52786;SDS011;38661;53.152;5.846;2023-09-19T03:07:56;9.80;;;1.90;;
52786;SDS011;38661;53.152;5.846;2023-09-19T03:10:25;11.70;;;2.40;;
52786;SDS011;38661;53.152;5.846;2023-09-19T03:12:51;10.07;;;2.17;;
52786;SDS011;38661;53.152;5.846;2023-09-19T03:15:17;10.05;;;2.50;;
52786;SDS011;38661;53.152;5.846;2023-09-19T03:17:44;8.15;;;1.67;;
52786;SDS011;38661;53.152;5.846;2023-09-19T03:20:10;13.18;;;2.55;;
52786;SDS011;38661;53.152;5.846;2023-09-19T03:22:38;7.80;;;2.17;;
52786;SDS011;38661;53.152;5.846;2023-09-19T03:25:05;11.02;;;2.35;;
52786;SDS011;38661;53.152;5.846;2023-09-19T03:27:36;7.80;;;2.13;;
52786;SDS011;38661;53.152;5.846;2023-09-19T03:30:02;11.32;;;2.00;;
52786;SDS011;38661;53.152;5.846;2023-09-19T03:32:30;7.85;;;2.75;;
52786;SDS011;38661;53.152;5.846;2023-09-19T03:34:56;13.93;;;2.40;;
52786;SDS011;38661;53.152;5.846;2023-09-19T03:37:22;7.50;;;2.60;;
52786;SDS011;38661;53.152;5.846;2023-09-19T03:39:48;7.90;;;2.05;;
52786;SDS011;38661;53.152;5.846;2023-09-19T03:42:13;11.60;;;2.63;;
52786;SDS011;38661;53.152;5.846;2023-09-19T03:44:39;5.20;;;1.77;;
52786;SDS011;38661;53.152;5.846;2023-09-19T03:47:05;8.75;;;2.08;;
52786;SDS011;38661;53.152;5.846;2023-09-19T03:49:32;10.75;;;2.25;;
52786;SDS011;38661;53.152;5.846;2023-09-19T03:51:59;9.35;;;2.15;;
52786;SDS011;38661;53.152;5.846;2023-09-19T03:54:24;10.70;;;2.33;;
52786;SDS011;38661;53.152;5.846;2023-09-19T03:56:50;8.82;;;2.05;;
52786;SDS011;38661;53.152;5.846;2023-09-19T03:59:16;8.10;;;2.17;;
52786;SDS011;38661;53.152;5.846;2023-09-19T04:01:43;8.82;;;2.10;;
52786;SDS011;38661;53.152;5.846;2023-09-19T04:04:09;7.13;;;2.13;;
52786;SDS011;38661;53.152;5.846;2023-09-19T04:06:35;8.85;;;2.30;;
52786;SDS011;38661;53.152;5.846;2023-09-19T04:09:04;14.48;;;2.50;;
52786;SDS011;38661;53.152;5.846;2023-09-19T04:11:32;9.93;;;3.15;;
52786;SDS011;38661;53.152;5.846;2023-09-19T04:13:58;10.48;;;2.50;;
52786;SDS011;38661;53.152;5.846;2023-09-19T04:16:24;10.85;;;2.28;;
52786;SDS011;38661;53.152;5.846;2023-09-19T04:18:50;8.63;;;2.42;;
52786;SDS011;38661;53.152;5.846;2023-09-19T04:21:15;6.88;;;2.22;;
52786;SDS011;38661;53.152;5.846;2023-09-19T04:23:41;5.50;;;2.03;;
52786;SDS011;38661;53.152;5.846;2023-09-19T04:26:08;10.48;;;2.55;;
52786;SDS011;38661;53.152;5.846;2023-09-19T04:28:33;21.10;;;2.83;;
52786;SDS011;38661;53.152;5.846;2023-09-19T04:31:00;9.07;;;2.17;;
52786;SDS011;38661;53.152;5.846;2023-09-19T04:33:26;13.25;;;2.78;;
52786;SDS011;38661;53.152;5.846;2023-09-19T04:35:55;5.82;;;2.05;;
52786;SDS011;38661;53.152;5.846;2023-09-19T04:38:21;6.95;;;2.25;;
52786;SDS011;38661;53.152;5.846;2023-09-19T04:40:47;7.40;;;2.60;;
52786;SDS011;38661;53.152;5.846;2023-09-19T04:43:15;10.15;;;2.67;;
52786;SDS011;38661;53.152;5.846;2023-09-19T04:45:42;9.45;;;2.65;;
52786;SDS011;38661;53.152;5.846;2023-09-19T04:48:07;8.25;;;2.03;;
52786;SDS011;38661;53.152;5.846;2023-09-19T04:50:33;11.40;;;2.33;;
52786;SDS011;38661;53.152;5.846;2023-09-19T04:53:00;7.50;;;2.03;;
52786;SDS011;38661;53.152;5.846;2023-09-19T04:55:26;12.77;;;2.30;;
52786;SDS011;38661;53.152;5.846;2023-09-19T04:57:52;12.55;;;2.80;;
52786;SDS011;38661;53.152;5.846;2023-09-19T05:00:19;9.88;;;2.33;;
52786;SDS011;38661;53.152;5.846;2023-09-19T05:02:55;10.45;;;2.08;;
52786;SDS011;38661;53.152;5.846;2023-09-19T05:05:24;9.73;;;2.30;;
52786;SDS011;38661;53.152;5.846;2023-09-19T05:07:51;12.65;;;2.25;;
52786;SDS011;38661;53.152;5.846;2023-09-19T05:10:19;8.65;;;2.05;;
52786;SDS011;38661;53.152;5.846;2023-09-19T05:12:45;11.75;;;2.45;;
52786;SDS011;38661;53.152;5.846;2023-09-19T05:15:12;13.27;;;2.58;;
52786;SDS011;38661;53.152;5.846;2023-09-19T05:17:48;10.70;;;2.40;;
52786;SDS011;38661;53.152;5.846;2023-09-19T05:20:20;18.60;;;2.67;;
52786;SDS011;38661;53.152;5.846;2023-09-19T05:23:01;13.02;;;2.60;;
52786;SDS011;38661;53.152;5.846;2023-09-19T05:25:31;9.27;;;1.98;;
52786;SDS011;38661;53.152;5.846;2023-09-19T05:28:00;11.60;;;2.08;;
52786;SDS011;38661;53.152;5.846;2023-09-19T05:30:28;8.57;;;1.92;;
52786;SDS011;38661;53.152;5.846;2023-09-19T05:32:54;10.68;;;2.58;;
52786;SDS011;38661;53.152;5.846;2023-09-19T05:35:21;9.82;;;2.60;;
52786;SDS011;38661;53.152;5.846;2023-09-19T05:37:47;8.27;;;2.53;;
52786;SDS011;38661;53.152;5.846;2023-09-19T05:40:16;10.00;;;2.50;;
52786;SDS011;38661;53.152;5.846;2023-09-19T05:42:42;8.60;;;2.53;;
52786;SDS011;38661;53.152;5.846;2023-09-19T05:45:09;9.43;;;2.28;;
52786;SDS011;38661;53.152;5.846;2023-09-19T05:47:41;7.63;;;2.50;;
52786;SDS011;38661;53.152;5.846;2023-09-19T05:50:08;8.68;;;2.28;;
52786;SDS011;38661;53.152;5.846;2023-09-19T05:52:40;9.95;;;2.00;;
52786;SDS011;38661;53.152;5.846;2023-09-19T05:55:08;12.15;;;2.65;;
52786;SDS011;38661;53.152;5.846;2023-09-19T05:57:34;12.68;;;2.22;;
52786;SDS011;38661;53.152;5.846;2023-09-19T06:00:00;9.63;;;2.47;;
52786;SDS011;38661;53.152;5.846;2023-09-19T06:02:26;8.57;;;2.35;;
52786;SDS011;38661;53.152;5.846;2023-09-19T06:04:54;11.95;;;1.95;;
52786;SDS011;38661;53.152;5.846;2023-09-19T06:07:21;6.45;;;1.90;;
52786;SDS011;38661;53.152;5.846;2023-09-19T06:09:48;9.68;;;3.15;;
52786;SDS011;38661;53.152;5.846;2023-09-19T06:12:14;10.98;;;2.90;;
52786;SDS011;38661;53.152;5.846;2023-09-19T06:14:42;11.88;;;3.13;;
52786;SDS011;38661;53.152;5.846;2023-09-19T06:17:08;12.40;;;2.50;;
52786;SDS011;38661;53.152;5.846;2023-09-19T06:19:34;7.80;;;2.17;;
52786;SDS011;38661;53.152;5.846;2023-09-19T06:21:59;7.40;;;1.65;;
52786;SDS011;38661;53.152;5.846;2023-09-19T06:24:25;8.68;;;2.25;;
52786;SDS011;38661;53.152;5.846;2023-09-19T06:26:51;13.63;;;2.70;;
52786;SDS011;38661;53.152;5.846;2023-09-19T06:29:17;9.60;;;2.58;;
52786;SDS011;38661;53.152;5.846;2023-09-19T06:31:45;14.57;;;3.05;;
52786;SDS011;38661;53.152;5.846;2023-09-19T06:34:12;10.38;;;2.47;;
52786;SDS011;38661;53.152;5.846;2023-09-19T06:36:40;9.30;;;2.58;;
52786;SDS011;38661;53.152;5.846;2023-09-19T06:39:07;10.40;;;2.85;;
52786;SDS011;38661;53.152;5.846;2023-09-19T06:41:36;11.73;;;2.35;;
52786;SDS011;38661;53.152;5.846;2023-09-19T06:44:03;11.80;;;2.80;;
52786;SDS011;38661;53.152;5.846;2023-09-19T06:46:30;9.57;;;2.80;;
52786;SDS011;38661;53.152;5.846;2023-09-19T06:49:00;12.90;;;2.72;;
52786;SDS011;38661;53.152;5.846;2023-09-19T06:51:28;9.43;;;2.53;;
52786;SDS011;38661;53.152;5.846;2023-09-19T06:53:54;8.23;;;2.30;;
52786;SDS011;38661;53.152;5.846;2023-09-19T06:56:22;9.57;;;2.38;;
52786;SDS011;38661;53.152;5.846;2023-09-19T06:58:49;13.05;;;3.25;;
52786;SDS011;38661;53.152;5.846;2023-09-19T07:01:15;8.73;;;2.03;;
52786;SDS011;38661;53.152;5.846;2023-09-19T07:03:41;9.23;;;2.22;;
52786;SDS011;38661;53.152;5.846;2023-09-19T07:06:06;8.93;;;2.15;;
52786;SDS011;38661;53.152;5.846;2023-09-19T07:08:33;7.68;;;1.83;;
52786;SDS011;38661;53.152;5.846;2023-09-19T07:10:59;7.28;;;1.85;;
52786;SDS011;38661;53.152;5.846;2023-09-19T07:13:25;14.45;;;3.15;;
52786;SDS011;38661;53.152;5.846;2023-09-19T07:15:50;10.50;;;2.15;;
52786;SDS011;38661;53.152;5.846;2023-09-19T07:18:16;11.02;;;2.83;;
52786;SDS011;38661;53.152;5.846;2023-09-19T07:20:43;7.35;;;2.15;;
52786;SDS011;38661;53.152;5.846;2023-09-19T07:23:16;12.80;;;3.10;;
52786;SDS011;38661;53.152;5.846;2023-09-19T07:25:46;8.57;;;2.13;;
52786;SDS011;38661;53.152;5.846;2023-09-19T07:28:13;11.95;;;2.70;;
52786;SDS011;38661;53.152;5.846;2023-09-19T07:30:39;11.13;;;2.38;;
52786;SDS011;38661;53.152;5.846;2023-09-19T07:33:06;8.55;;;2.42;;
52786;SDS011;38661;53.152;5.846;2023-09-19T07:35:36;10.48;;;2.17;;
52786;SDS011;38661;53.152;5.846;2023-09-19T07:38:05;11.23;;;2.22;;
52786;SDS011;38661;53.152;5.846;2023-09-19T07:40:31;14.00;;;2.47;;
52786;SDS011;38661;53.152;5.846;2023-09-19T07:42:57;9.25;;;2.55;;
52786;SDS011;38661;53.152;5.846;2023-09-19T07:45:27;10.27;;;2.20;;
52786;SDS011;38661;53.152;5.846;2023-09-19T07:47:55;12.75;;;2.58;;
52786;SDS011;38661;53.152;5.846;2023-09-19T07:50:21;12.77;;;3.17;;
52786;SDS011;38661;53.152;5.846;2023-09-19T07:52:47;9.23;;;2.38;;
52786;SDS011;38661;53.152;5.846;2023-09-19T07:55:16;11.55;;;2.70;;
52786;SDS011;38661;53.152;5.846;2023-09-19T07:57:45;6.28;;;2.03;;
52786;SDS011;38661;53.152;5.846;2023-09-19T08:00:12;25.17;;;3.47;;
52786;SDS011;38661;53.152;5.846;2023-09-19T08:02:41;9.40;;;1.98;;
52786;SDS011;38661;53.152;5.846;2023-09-19T08:05:08;12.20;;;2.85;;
52786;SDS011;38661;53.152;5.846;2023-09-19T08:07:35;8.07;;;2.03;;
52786;SDS011;38661;53.152;5.846;2023-09-19T08:10:05;11.68;;;2.95;;
52786;SDS011;38661;53.152;5.846;2023-09-19T08:12:40;8.48;;;2.35;;
52786;SDS011;38661;53.152;5.846;2023-09-19T08:15:15;9.88;;;2.80;;
52786;SDS011;38661;53.152;5.846;2023-09-19T08:17:42;14.15;;;3.35;;
52786;SDS011;38661;53.152;5.846;2023-09-19T08:20:08;13.15;;;2.67;;
52786;SDS011;38661;53.152;5.846;2023-09-19T08:22:42;8.13;;;2.25;;
52786;SDS011;38661;53.152;5.846;2023-09-19T08:25:11;13.15;;;2.67;;
52786;SDS011;38661;53.152;5.846;2023-09-19T08:27:37;16.17;;;2.92;;
52786;SDS011;38661;53.152;5.846;2023-09-19T08:30:02;9.00;;;2.30;;
52786;SDS011;38661;53.152;5.846;2023-09-19T08:32:29;11.10;;;3.42;;
52786;SDS011;38661;53.152;5.846;2023-09-19T08:34:54;7.85;;;3.10;;
52786;SDS011;38661;53.152;5.846;2023-09-19T08:37:20;10.15;;;2.22;;
52786;SDS011;38661;53.152;5.846;2023-09-19T08:39:46;8.15;;;2.88;;
52786;SDS011;38661;53.152;5.846;2023-09-19T08:42:12;10.55;;;2.53;;
52786;SDS011;38661;53.152;5.846;2023-09-19T08:44:38;8.77;;;2.42;;
52786;SDS011;38661;53.152;5.846;2023-09-19T08:47:15;9.68;;;2.55;;
52786;SDS011;38661;53.152;5.846;2023-09-19T08:52:27;9.27;;;2.78;;
52786;SDS011;38661;53.152;5.846;2023-09-19T08:55:01;17.48;;;3.20;;
52786;SDS011;38661;53.152;5.846;2023-09-19T08:57:35;12.38;;;3.47;;
52786;SDS011;38661;53.152;5.846;2023-09-19T09:00:06;10.63;;;2.70;;
52786;SDS011;38661;53.152;5.846;2023-09-19T09:02:39;11.57;;;3.28;;
52786;SDS011;38661;53.152;5.846;2023-09-19T09:05:08;10.60;;;3.40;;
52786;SDS011;38661;53.152;5.846;2023-09-19T09:07:39;8.80;;;2.75;;
52786;SDS011;38661;53.152;5.846;2023-09-19T09:10:06;9.48;;;3.38;;
52786;SDS011;38661;53.152;5.846;2023-09-19T09:12:32;9.95;;;2.22;;
52786;SDS011;38661;53.152;5.846;2023-09-19T09:15:01;11.40;;;2.60;;
52786;SDS011;38661;53.152;5.846;2023-09-19T09:17:29;8.23;;;2.97;;
52786;SDS011;38661;53.152;5.846;2023-09-19T09:19:55;11.40;;;2.58;;
52786;SDS011;38661;53.152;5.846;2023-09-19T09:22:21;13.43;;;3.00;;
52786;SDS011;38661;53.152;5.846;2023-09-19T09:24:53;14.23;;;3.88;;
52786;SDS011;38661;53.152;5.846;2023-09-19T09:27:23;8.63;;;2.92;;
52786;SDS011;38661;53.152;5.846;2023-09-19T09:29:49;11.65;;;3.72;;
52786;SDS011;38661;53.152;5.846;2023-09-19T09:32:16;10.55;;;2.88;;
52786;SDS011;38661;53.152;5.846;2023-09-19T09:34:43;10.82;;;3.15;;
52786;SDS011;38661;53.152;5.846;2023-09-19T09:37:13;9.20;;;2.80;;
52786;SDS011;38661;53.152;5.846;2023-09-19T09:39:40;14.95;;;4.28;;
52786;SDS011;38661;53.152;5.846;2023-09-19T09:42:29;13.55;;;3.30;;
52786;SDS011;38661;53.152;5.846;2023-09-19T09:48:01;12.45;;;2.67;;
52786;SDS011;38661;53.152;5.846;2023-09-19T09:50:46;12.48;;;3.47;;
52786;SDS011;38661;53.152;5.846;2023-09-19T09:55:57;14.27;;;3.50;;
52786;SDS011;38661;53.152;5.846;2023-09-19T09:58:50;14.00;;;2.65;;
52786;SDS011;38661;53.152;5.846;2023-09-19T10:01:21;13.27;;;4.03;;
52786;SDS011;38661;53.152;5.846;2023-09-19T10:03:52;15.48;;;4.28;;
52786;SDS011;38661;53.152;5.846;2023-09-19T10:06:23;15.15;;;3.80;;
52786;SDS011;38661;53.152;5.846;2023-09-19T10:09:02;13.43;;;3.30;;
52786;SDS011;38661;53.152;5.846;2023-09-19T10:11:38;13.90;;;3.22;;
52786;SDS011;38661;53.152;5.846;2023-09-19T10:14:09;11.05;;;3.40;;
52786;SDS011;38661;53.152;5.846;2023-09-19T10:16:40;12.45;;;3.63;;
52786;SDS011;38661;53.152;5.846;2023-09-19T10:19:15;13.93;;;3.37;;
52786;SDS011;38661;53.152;5.846;2023-09-19T10:21:48;11.57;;;3.17;;
52786;SDS011;38661;53.152;5.846;2023-09-19T10:24:16;18.50;;;4.18;;
52786;SDS011;38661;53.152;5.846;2023-09-19T10:26:43;20.45;;;4.13;;
52786;SDS011;38661;53.152;5.846;2023-09-19T10:29:11;9.07;;;3.25;;
52786;SDS011;38661;53.152;5.846;2023-09-19T10:31:42;15.77;;;3.83;;
52786;SDS011;38661;53.152;5.846;2023-09-19T10:34:13;12.85;;;3.30;;
52786;SDS011;38661;53.152;5.846;2023-09-19T10:36:40;11.10;;;3.13;;
52786;SDS011;38661;53.152;5.846;2023-09-19T10:39:10;11.98;;;3.85;;
52786;SDS011;38661;53.152;5.846;2023-09-19T10:41:38;16.67;;;4.10;;
52786;SDS011;38661;53.152;5.846;2023-09-19T10:44:05;12.18;;;3.35;;
52786;SDS011;38661;53.152;5.846;2023-09-19T10:46:31;12.15;;;3.22;;
52786;SDS011;38661;53.152;5.846;2023-09-19T10:49:01;12.82;;;4.43;;
52786;SDS011;38661;53.152;5.846;2023-09-19T10:51:32;12.25;;;3.65;;
52786;SDS011;38661;53.152;5.846;2023-09-19T10:54:07;11.20;;;3.83;;
52786;SDS011;38661;53.152;5.846;2023-09-19T10:56:38;16.85;;;3.90;;
52786;SDS011;38661;53.152;5.846;2023-09-19T10:59:11;10.93;;;3.88;;
52786;SDS011;38661;53.152;5.846;2023-09-19T11:01:45;12.48;;;3.78;;
52786;SDS011;38661;53.152;5.846;2023-09-19T11:04:22;11.88;;;4.43;;
52786;SDS011;38661;53.152;5.846;2023-09-19T11:07:05;14.63;;;4.40;;
52786;SDS011;38661;53.152;5.846;2023-09-19T11:14:54;12.30;;;3.42;;
52786;SDS011;38661;53.152;5.846;2023-09-19T11:43:51;10.63;;;3.38;;
52786;SDS011;38661;53.152;5.846;2023-09-19T11:46:22;14.05;;;3.72;;
52786;SDS011;38661;53.152;5.846;2023-09-19T11:48:48;12.13;;;4.57;;
52786;SDS011;38661;53.152;5.846;2023-09-19T11:51:16;15.20;;;4.10;;
52786;SDS011;38661;53.152;5.846;2023-09-19T11:53:55;16.58;;;5.25;;
52786;SDS011;38661;53.152;5.846;2023-09-19T11:56:24;15.05;;;5.00;;
52786;SDS011;38661;53.152;5.846;2023-09-19T11:58:56;15.68;;;5.28;;
52786;SDS011;38661;53.152;5.846;2023-09-19T12:01:32;13.20;;;4.40;;
52786;SDS011;38661;53.152;5.846;2023-09-19T12:04:00;11.85;;;4.20;;
52786;SDS011;38661;53.152;5.846;2023-09-19T12:06:28;14.30;;;4.28;;
52786;SDS011;38661;53.152;5.846;2023-09-19T12:09:04;13.27;;;4.90;;
52786;SDS011;38661;53.152;5.846;2023-09-19T12:11:40;10.88;;;3.78;;
52786;SDS011;38661;53.152;5.846;2023-09-19T12:14:07;9.13;;;4.32;;
52786;SDS011;38661;53.152;5.846;2023-09-19T12:16:33;8.25;;;3.75;;
52786;SDS011;38661;53.152;5.846;2023-09-19T12:19:22;11.77;;;3.58;;
52786;SDS011;38661;53.152;5.846;2023-09-19T12:22:01;8.77;;;3.38;;
52786;SDS011;38661;53.152;5.846;2023-09-19T12:24:29;15.13;;;3.35;;
52786;SDS011;38661;53.152;5.846;2023-09-19T12:26:59;9.23;;;2.63;;
52786;SDS011;38661;53.152;5.846;2023-09-19T12:29:26;11.70;;;4.47;;
52786;SDS011;38661;53.152;5.846;2023-09-19T12:31:53;11.27;;;3.72;;
52786;SDS011;38661;53.152;5.846;2023-09-19T12:34:31;13.85;;;3.08;;
52786;SDS011;38661;53.152;5.846;2023-09-19T12:37:13;8.57;;;2.25;;
52786;SDS011;38661;53.152;5.846;2023-09-19T12:39:47;9.25;;;2.55;;
52786;SDS011;38661;53.152;5.846;2023-09-19T12:42:21;9.75;;;2.80;;
52786;SDS011;38661;53.152;5.846;2023-09-19T12:44:49;8.18;;;2.83;;
52786;SDS011;38661;53.152;5.846;2023-09-19T12:47:20;10.82;;;3.60;;
52786;SDS011;38661;53.152;5.846;2023-09-19T12:52:47;10.60;;;3.42;;
52786;SDS011;38661;53.152;5.846;2023-09-19T13:03:14;5.35;;;2.85;;
52786;SDS011;38661;53.152;5.846;2023-09-19T13:05:56;10.48;;;2.60;;
52786;SDS011;38661;53.152;5.846;2023-09-19T13:13:51;7.80;;;2.67;;
52786;SDS011;38661;53.152;5.846;2023-09-19T13:16:55;10.70;;;2.08;;
52786;SDS011;38661;53.152;5.846;2023-09-19T13:22:35;8.38;;;2.50;;
52786;SDS011;38661;53.152;5.846;2023-09-19T13:25:13;8.57;;;2.65;;
52786;SDS011;38661;53.152;5.846;2023-09-19T13:27:46;5.38;;;2.20;;
52786;SDS011;38661;53.152;5.846;2023-09-19T13:30:21;9.82;;;2.53;;
52786;SDS011;38661;53.152;5.846;2023-09-19T13:32:50;10.43;;;2.80;;
52786;SDS011;38661;53.152;5.846;2023-09-19T13:35:17;6.60;;;2.42;;
52786;SDS011;38661;53.152;5.846;2023-09-19T13:37:44;7.72;;;2.72;;
52786;SDS011;38661;53.152;5.846;2023-09-19T13:40:14;6.88;;;2.33;;
52786;SDS011;38661;53.152;5.846;2023-09-19T13:42:40;6.78;;;2.40;;
52786;SDS011;38661;53.152;5.846;2023-09-19T13:45:07;8.70;;;2.50;;
52786;SDS011;38661;53.152;5.846;2023-09-19T13:47:37;7.50;;;2.38;;
52786;SDS011;38661;53.152;5.846;2023-09-19T13:50:04;8.50;;;2.60;;
52786;SDS011;38661;53.152;5.846;2023-09-19T13:52:31;8.93;;;2.40;;
52786;SDS011;38661;53.152;5.846;2023-09-19T13:54:57;6.28;;;2.75;;
52786;SDS011;38661;53.152;5.846;2023-09-19T13:57:23;11.07;;;2.97;;
52786;SDS011;38661;53.152;5.846;2023-09-19T13:59:51;8.65;;;2.72;;
52786;SDS011;38661;53.152;5.846;2023-09-19T14:02:19;5.30;;;2.42;;
52786;SDS011;38661;53.152;5.846;2023-09-19T14:04:47;8.20;;;2.90;;
52786;SDS011;38661;53.152;5.846;2023-09-19T14:07:14;10.50;;;3.35;;
52786;SDS011;38661;53.152;5.846;2023-09-19T14:09:40;8.45;;;2.70;;
52786;SDS011;38661;53.152;5.846;2023-09-19T14:12:06;17.20;;;4.22;;
52786;SDS011;38661;53.152;5.846;2023-09-19T14:14:32;11.02;;;3.53;;
52786;SDS011;38661;53.152;5.846;2023-09-19T14:16:58;9.65;;;3.10;;
52786;SDS011;38661;53.152;5.846;2023-09-19T14:19:26;7.65;;;3.03;;
52786;SDS011;38661;53.152;5.846;2023-09-19T14:21:52;9.05;;;3.25;;
52786;SDS011;38661;53.152;5.846;2023-09-19T14:24:20;7.55;;;3.15;;
52786;SDS011;38661;53.152;5.846;2023-09-19T14:26:47;8.48;;;2.97;;
52786;SDS011;38661;53.152;5.846;2023-09-19T14:29:14;10.25;;;2.90;;
52786;SDS011;38661;53.152;5.846;2023-09-19T14:31:40;11.93;;;2.90;;
52786;SDS011;38661;53.152;5.846;2023-09-19T14:34:06;11.05;;;3.05;;
52786;SDS011;38661;53.152;5.846;2023-09-19T14:36:35;8.85;;;3.25;;
52786;SDS011;38661;53.152;5.846;2023-09-19T14:39:04;12.05;;;3.90;;
52786;SDS011;38661;53.152;5.846;2023-09-19T14:41:30;8.63;;;3.85;;
52786;SDS011;38661;53.152;5.846;2023-09-19T14:43:56;12.68;;;4.07;;
52786;SDS011;38661;53.152;5.846;2023-09-19T14:46:22;7.93;;;2.70;;
52786;SDS011;38661;53.152;5.846;2023-09-19T14:48:51;12.88;;;3.50;;
52786;SDS011;38661;53.152;5.846;2023-09-19T14:51:17;13.02;;;3.78;;
52786;SDS011;38661;53.152;5.846;2023-09-19T14:53:44;19.10;;;3.63;;
52786;SDS011;38661;53.152;5.846;2023-09-19T14:56:11;11.38;;;3.83;;
52786;SDS011;38661;53.152;5.846;2023-09-19T14:58:38;12.32;;;3.90;;
52786;SDS011;38661;53.152;5.846;2023-09-19T15:01:11;13.52;;;3.90;;
52786;SDS011;38661;53.152;5.846;2023-09-19T15:03:38;14.90;;;4.78;;
52786;SDS011;38661;53.152;5.846;2023-09-19T15:06:11;17.00;;;3.78;;
52786;SDS011;38661;53.152;5.846;2023-09-19T15:08:41;11.93;;;3.47;;
52786;SDS011;38661;53.152;5.846;2023-09-19T15:11:12;7.63;;;3.10;;
52786;SDS011;38661;53.152;5.846;2023-09-19T15:13:45;15.30;;;3.28;;
52786;SDS011;38661;53.152;5.846;2023-09-19T15:16:12;13.27;;;3.75;;
52786;SDS011;38661;53.152;5.846;2023-09-19T15:18:42;12.95;;;3.50;;
52786;SDS011;38661;53.152;5.846;2023-09-19T15:21:10;15.40;;;4.55;;
52786;SDS011;38661;53.152;5.846;2023-09-19T15:23:37;12.85;;;4.07;;
52786;SDS011;38661;53.152;5.846;2023-09-19T15:26:04;13.43;;;3.67;;
52786;SDS011;38661;53.152;5.846;2023-09-19T15:28:32;12.52;;;4.97;;
52786;SDS011;38661;53.152;5.846;2023-09-19T15:30:59;14.15;;;4.15;;
52786;SDS011;38661;53.152;5.846;2023-09-19T15:33:26;14.60;;;4.53;;
52786;SDS011;38661;53.152;5.846;2023-09-19T15:41:21;11.63;;;3.58;;
52786;SDS011;38661;53.152;5.846;2023-09-19T15:43:47;8.43;;;3.13;;
52786;SDS011;38661;53.152;5.846;2023-09-19T15:46:13;8.88;;;3.55;;
52786;SDS011;38661;53.152;5.846;2023-09-19T15:48:40;10.60;;;3.55;;
52786;SDS011;38661;53.152;5.846;2023-09-19T15:51:06;16.55;;;4.70;;
52786;SDS011;38661;53.152;5.846;2023-09-19T15:53:51;13.32;;;4.75;;
52786;SDS011;38661;53.152;5.846;2023-09-19T15:56:18;13.32;;;4.53;;
52786;SDS011;38661;53.152;5.846;2023-09-19T15:58:49;12.63;;;3.90;;
52786;SDS011;38661;53.152;5.846;2023-09-19T16:01:16;16.15;;;4.53;;
52786;SDS011;38661;53.152;5.846;2023-09-19T16:03:43;12.50;;;4.82;;
52786;SDS011;38661;53.152;5.846;2023-09-19T16:06:10;15.13;;;4.80;;
52786;SDS011;38661;53.152;5.846;2023-09-19T16:08:41;17.50;;;5.85;;
52786;SDS011;38661;53.152;5.846;2023-09-19T16:11:08;11.02;;;4.03;;
52786;SDS011;38661;53.152;5.846;2023-09-19T16:13:34;13.55;;;4.97;;
52786;SDS011;38661;53.152;5.846;2023-09-19T16:16:04;14.55;;;4.20;;
52786;SDS011;38661;53.152;5.846;2023-09-19T16:18:30;11.35;;;4.47;;
52786;SDS011;38661;53.152;5.846;2023-09-19T16:21:02;12.63;;;5.10;;